Time;durP1;ratioP1;P1;durP2;ratioP2;P2;SDS_P1;SDS_P2;PMS_P1;PMS_P2;Temp;Humidity;BMP_temperature;BMP_pressure;BME280_temperature;BME280_humidity;BME280_pressure;Samples;Min_cycle;Max_cycle;Signal;HPM_P1;HPM_P2
2022/03/11 00:00:05;;;;;;;9.83;2.10;;;22.50;61.30;;;;;;5031716;28;20268;-77
2022/03/11 00:02:36;;;;;;;9.63;2.43;;;22.50;61.10;;;;;;5031060;28;20177;-77
2022/03/11 00:05:04;;;;;;;7.57;2.03;;;22.70;61.30;;;;;;5049815;28;20199;-81
2022/03/11 00:07:31;;;;;;;7.90;2.30;;;22.60;60.90;;;;;;5048811;28;20314;-76
2022/03/11 00:09:58;;;;;;;10.57;2.00;;;22.70;60.50;;;;;;5042397;28;20177;-77
2022/03/11 00:12:26;;;;;;;11.13;2.00;;;22.60;60.70;;;;;;5050026;28;20253;-77
2022/03/11 00:14:54;;;;;;;10.93;1.87;;;22.80;60.20;;;;;;5037867;28;20282;-83
2022/03/11 00:17:21;;;;;;;12.60;2.43;;;23.00;60.70;;;;;;5047311;28;20516;-79
2022/03/11 00:19:48;;;;;;;10.93;2.17;;;23.00;59.40;;;;;;5052287;28;20219;-82
2022/03/11 00:22:16;;;;;;;6.47;1.97;;;23.30;59.60;;;;;;5049469;28;20186;-76
2022/03/11 00:24:43;;;;;;;11.30;2.07;;;23.10;59.40;;;;;;5035960;28;20188;-77
2022/03/11 00:27:11;;;;;;;5.90;1.83;;;23.30;58.90;;;;;;5037131;28;20639;-76
2022/03/11 00:29:39;;;;;;;14.73;2.00;;;23.30;57.80;;;;;;5044669;28;20184;-79
2022/03/11 00:32:06;;;;;;;8.93;2.27;;;23.20;58.00;;;;;;5052360;28;20734;-79
2022/03/11 00:34:34;;;;;;;8.10;2.00;;;23.20;59.30;;;;;;5053390;28;20560;-78
2022/03/11 00:37:02;;;;;;;6.63;1.77;;;23.00;58.50;;;;;;5047438;28;20184;-79
2022/03/11 00:39:29;;;;;;;15.87;2.53;;;23.10;58.30;;;;;;5044516;28;20191;-78
2022/03/11 00:41:57;;;;;;;9.07;2.03;;;23.40;58.30;;;;;;5044879;28;20177;-77
2022/03/11 00:44:27;;;;;;;6.93;1.40;;;23.40;57.20;;;;;;5041704;28;20294;-77
2022/03/11 00:46:55;;;;;;;10.10;1.90;;;23.40;57.60;;;;;;5041835;28;20184;-81
2022/03/11 00:49:22;;;;;;;12.33;2.10;;;23.80;57.20;;;;;;5049870;28;20188;-80
2022/03/11 00:51:50;;;;;;;8.17;2.27;;;23.50;56.00;;;;;;5051868;28;20208;-76
2022/03/11 00:54:17;;;;;;;6.37;1.77;;;23.20;57.60;;;;;;5048565;28;20184;-77
2022/03/11 00:56:45;;;;;;;10.60;2.20;;;23.30;56.40;;;;;;5052355;28;20192;-79
2022/03/11 00:59:12;;;;;;;8.40;2.30;;;22.90;57.40;;;;;;5050268;28;20650;-79
2022/03/11 01:01:40;;;;;;;9.20;1.77;;;22.90;57.80;;;;;;5041242;28;20196;-80
2022/03/11 01:04:07;;;;;;;9.23;1.83;;;23.30;57.00;;;;;;5045733;28;20639;-80
2022/03/11 01:06:35;;;;;;;14.67;2.30;;;23.80;55.90;;;;;;5040820;28;20326;-75
2022/03/11 01:09:02;;;;;;;8.03;1.60;;;23.90;56.20;;;;;;5042459;28;20658;-77
2022/03/11 01:11:30;;;;;;;6.77;2.17;;;24.00;53.70;;;;;;5051444;28;20184;-76
2022/03/11 01:13:57;;;;;;;12.90;3.60;;;24.20;54.50;;;;;;5051146;28;20716;-76
2022/03/11 01:16:25;;;;;;;5.77;2.60;;;24.50;54.30;;;;;;5050980;28;20184;-78
2022/03/11 01:18:52;;;;;;;9.17;2.50;;;24.50;52.60;;;;;;5046607;28;21005;-78
2022/03/11 01:21:20;;;;;;;9.93;1.60;;;24.70;53.00;;;;;;5049740;28;20184;-77
2022/03/11 01:23:47;;;;;;;8.63;2.17;;;25.00;53.10;;;;;;5048991;28;20191;-78
2022/03/11 01:26:16;;;;;;;5.27;1.60;;;24.80;52.10;;;;;;5048267;28;20754;-76
2022/03/11 01:28:44;;;;;;;15.20;2.63;;;25.00;52.90;;;;;;5043781;28;20219;-77
2022/03/11 01:31:12;;;;;;;6.87;1.63;;;25.10;51.30;;;;;;5048971;28;20184;-77
2022/03/11 01:33:40;;;;;;;5.33;1.30;;;24.80;52.00;;;;;;5049900;28;20223;-79
2022/03/11 01:36:09;;;;;;;7.77;1.67;;;24.40;53.10;;;;;;5053416;28;20180;-77
2022/03/11 01:38:37;;;;;;;11.20;1.70;;;24.20;53.00;;;;;;5048460;28;20179;-77
2022/03/11 01:41:05;;;;;;;8.40;2.40;;;24.80;52.80;;;;;;5050651;28;20646;-77
2022/03/11 01:43:51;;;;;;;10.67;1.90;;;25.10;52.00;;;;;;5052747;28;20655;-75
2022/03/11 01:46:19;;;;;;;5.87;1.60;;;25.20;50.60;;;;;;5053493;28;20177;-78
2022/03/11 01:48:46;;;;;;;7.13;2.20;;;25.50;51.10;;;;;;5050132;28;20195;-77
2022/03/11 01:51:14;;;;;;;9.03;1.53;;;25.40;52.20;;;;;;5055138;28;20191;-78
2022/03/11 01:53:41;;;;;;;6.47;1.40;;;25.60;52.20;;;;;;5059186;28;20286;-78
2022/03/11 01:56:09;;;;;;;9.43;1.97;;;25.70;51.90;;;;;;5059054;28;20207;-78
2022/03/11 01:58:37;;;;;;;9.90;1.80;;;25.50;52.10;;;;;;5057195;28;20191;-76
2022/03/11 02:01:04;;;;;;;9.47;2.07;;;25.60;52.90;;;;;;5057237;28;20176;-81
2022/03/11 02:03:33;;;;;;;8.30;1.83;;;25.80;51.60;;;;;;5054229;28;20191;-77
2022/03/11 02:06:04;;;;;;;10.50;1.80;;;25.80;52.00;;;;;;5052338;28;20239;-77
2022/03/11 02:08:32;;;;;;;8.50;2.10;;;26.00;49.80;;;;;;5052679;28;20187;-81
2022/03/11 02:10:59;;;;;;;7.50;1.50;;;26.10;50.10;;;;;;5044807;28;20223;-83
2022/03/11 02:13:27;;;;;;;5.13;1.30;;;25.80;50.00;;;;;;5051183;28;20261;-79
2022/03/11 02:15:54;;;;;;;3.77;0.97;;;26.00;51.80;;;;;;5052294;28;20187;-79
2022/03/11 02:18:21;;;;;;;3.83;1.43;;;26.20;50.50;;;;;;5052138;28;20188;-79
2022/03/11 02:20:49;;;;;;;5.87;1.20;;;26.30;50.40;;;;;;5051678;28;20184;-78
2022/03/11 02:23:20;;;;;;;7.97;1.50;;;26.30;50.30;;;;;;5051793;28;20187;-83
2022/03/11 02:25:47;;;;;;;7.10;1.57;;;26.30;50.00;;;;;;5052449;28;20210;-81
2022/03/11 02:28:15;;;;;;;7.80;1.27;;;26.30;50.10;;;;;;5045756;28;20223;-75
2022/03/11 02:30:42;;;;;;;5.00;1.40;;;26.20;50.20;;;;;;5050925;28;20267;-88
2022/03/11 02:33:10;;;;;;;10.40;1.43;;;26.30;49.30;;;;;;5051807;28;20322;-81
2022/03/11 02:35:37;;;;;;;8.37;1.73;;;26.10;50.10;;;;;;5051398;28;20179;-80
2022/03/11 02:38:04;;;;;;;11.23;1.63;;;26.20;49.30;;;;;;5045066;28;20191;-84
2022/03/11 02:40:35;;;;;;;10.33;1.50;;;26.50;49.30;;;;;;5052268;28;20192;-79
2022/03/11 02:43:03;;;;;;;5.43;1.50;;;26.40;49.50;;;;;;5051139;28;20184;-77
2022/03/11 02:45:30;;;;;;;9.37;1.60;;;26.80;49.40;;;;;;5052377;28;20270;-78
2022/03/11 02:47:57;;;;;;;4.20;1.40;;;26.90;48.40;;;;;;5051096;28;20263;-76
2022/03/11 02:50:25;;;;;;;8.07;1.67;;;27.20;48.20;;;;;;5053559;28;20192;-78
2022/03/11 02:52:52;;;;;;;13.33;1.60;;;27.00;49.60;;;;;;5046882;28;20238;-77
2022/03/11 02:55:19;;;;;;;8.63;1.57;;;26.50;49.70;;;;;;5051108;28;20184;-82
2022/03/11 02:57:47;;;;;;;6.23;1.40;;;26.20;50.30;;;;;;5051474;28;20194;-77
2022/03/11 03:00:15;;;;;;;10.47;1.67;;;25.70;52.30;;;;;;5050285;28;20245;-79
2022/03/11 03:02:42;;;;;;;12.73;1.70;;;25.80;52.10;;;;;;5050975;28;20186;-77
2022/03/11 03:05:10;;;;;;;8.00;1.37;;;26.30;50.50;;;;;;5051034;28;20267;-78
2022/03/11 03:07:37;;;;;;;4.37;1.50;;;26.50;49.80;;;;;;5051951;28;20242;-77
2022/03/11 03:10:05;;;;;;;5.30;1.60;;;26.90;48.90;;;;;;5050607;28;20180;-76
2022/03/11 03:12:32;;;;;;;8.57;1.37;;;27.10;48.20;;;;;;5049975;28;20211;-77
2022/03/11 03:15:00;;;;;;;5.03;1.73;;;27.30;47.60;;;;;;5051766;28;20234;-81
2022/03/11 03:17:28;;;;;;;7.33;1.40;;;27.70;48.10;;;;;;5048704;28;20183;-77
2022/03/11 03:19:56;;;;;;;6.57;1.70;;;26.90;49.60;;;;;;5046678;28;20208;-78
2022/03/11 03:22:23;;;;;;;6.53;1.27;;;26.70;50.20;;;;;;5044972;28;20184;-78
2022/03/11 03:24:51;;;;;;;6.63;1.47;;;26.20;51.30;;;;;;5061925;28;20175;-77
2022/03/11 03:27:19;;;;;;;8.83;2.40;;;26.30;50.90;;;;;;5064811;28;20180;-78
2022/03/11 03:29:46;;;;;;;16.57;1.80;;;26.80;49.80;;;;;;5066475;28;20214;-82
2022/03/11 03:32:13;;;;;;;9.90;2.60;;;27.10;49.60;;;;;;5066939;28;20215;-77
2022/03/11 03:34:41;;;;;;;7.47;1.50;;;27.10;48.90;;;;;;5066408;28;20188;-77
2022/03/11 03:37:10;;;;;;;7.83;1.53;;;27.30;47.80;;;;;;5050769;28;20188;-79
2022/03/11 03:39:40;;;;;;;9.00;1.90;;;27.80;46.90;;;;;;5051106;28;20192;-77
2022/03/11 03:42:08;;;;;;;8.87;3.27;;;28.10;47.10;;;;;;5050861;28;20184;-78
2022/03/11 03:44:36;;;;;;;7.40;1.60;;;28.20;46.30;;;;;;5049126;28;20219;-77
2022/03/11 03:47:04;;;;;;;12.13;1.67;;;27.90;47.60;;;;;;5047915;28;20180;-77
2022/03/11 03:49:32;;;;;;;5.20;1.60;;;27.00;48.70;;;;;;5051135;28;20195;-81
2022/03/11 03:51:59;;;;;;;4.50;1.40;;;26.30;50.10;;;;;;5050961;28;20226;-78
2022/03/11 03:54:27;;;;;;;18.27;2.97;;;25.70;51.80;;;;;;5047635;28;20205;-77
2022/03/11 03:56:54;;;;;;;9.23;2.90;;;25.80;51.10;;;;;;5049370;28;20219;-78
2022/03/11 03:59:24;;;;;;;4.30;1.33;;;25.80;50.90;;;;;;5049512;28;20255;-78
2022/03/11 04:01:51;;;;;;;4.17;1.70;;;25.80;50.80;;;;;;5047116;28;20195;-79
2022/03/11 04:04:19;;;;;;;8.70;1.10;;;26.10;50.00;;;;;;5054075;28;20214;-78
2022/03/11 04:06:46;;;;;;;5.13;1.40;;;26.90;47.50;;;;;;5051277;28;20728;-77
2022/03/11 04:09:14;;;;;;;4.87;1.30;;;27.40;47.10;;;;;;5052516;28;20306;-77
2022/03/11 04:11:41;;;;;;;6.33;1.40;;;28.40;44.60;;;;;;5049001;28;20184;-80
2022/03/11 04:14:09;;;;;;;4.00;1.10;;;27.90;45.20;;;;;;5044364;28;20271;-77
2022/03/11 04:16:36;;;;;;;4.77;1.10;;;27.30;46.30;;;;;;5053267;28;20536;-77
2022/03/11 04:19:04;;;;;;;5.23;1.40;;;26.90;47.00;;;;;;5051319;28;20657;-76
2022/03/11 04:21:31;;;;;;;5.20;1.90;;;26.60;47.00;;;;;;5054282;28;20187;-76
2022/03/11 04:23:58;;;;;;;8.17;1.40;;;26.20;49.20;;;;;;5054321;28;20307;-79
2022/03/11 04:26:26;;;;;;;6.93;1.47;;;25.70;51.40;;;;;;5038057;28;20242;-83
2022/03/11 04:28:53;;;;;;;7.27;1.40;;;25.10;52.70;;;;;;5043261;28;20286;-80
2022/03/11 04:31:20;;;;;;;5.67;1.53;;;25.00;53.20;;;;;;5054398;28;20330;-80
2022/03/11 04:33:48;;;;;;;3.03;1.00;;;24.80;54.00;;;;;;5050215;28;20697;-78
2022/03/11 04:36:15;;;;;;;8.87;1.40;;;24.70;53.90;;;;;;5050085;28;20280;-84
2022/03/11 04:38:42;;;;;;;5.67;1.30;;;25.00;53.30;;;;;;5051898;28;20195;-83
2022/03/11 04:41:10;;;;;;;7.90;1.50;;;24.80;53.70;;;;;;5044845;28;20203;-78
2022/03/11 04:43:37;;;;;;;6.40;1.17;;;24.30;54.90;;;;;;5054668;28;20229;-78
2022/03/11 04:46:05;;;;;;;10.53;1.23;;;24.60;54.10;;;;;;5054961;28;20238;-82
2022/03/11 04:48:33;;;;;;;3.53;1.30;;;24.50;54.30;;;;;;5055623;28;20187;-81
2022/03/11 04:51:02;;;;;;;5.40;1.40;;;24.10;54.90;;;;;;5055508;28;20266;-82
2022/03/11 04:53:29;;;;;;;7.40;1.50;;;24.00;54.10;;;;;;5050903;28;20240;-79
2022/03/11 04:55:57;;;;;;;4.87;1.20;;;24.20;54.90;;;;;;5050052;28;20190;-77
2022/03/11 04:58:24;;;;;;;6.60;1.20;;;24.10;54.50;;;;;;5054362;28;20199;-78
2022/03/11 05:00:51;;;;;;;4.60;1.30;;;24.30;54.20;;;;;;5054150;28;20188;-79
2022/03/11 05:03:19;;;;;;;5.63;1.27;;;24.80;53.90;;;;;;5054247;28;20179;-80
2022/03/11 05:05:46;;;;;;;11.27;1.90;;;24.70;51.80;;;;;;5052711;28;20307;-79
2022/03/11 05:08:13;;;;;;;6.37;1.30;;;24.20;53.20;;;;;;5053822;28;20279;-79
2022/03/11 05:10:41;;;;;;;5.37;1.13;;;24.10;53.70;;;;;;5051702;28;20176;-78
2022/03/11 05:13:08;;;;;;;5.20;1.07;;;24.00;54.50;;;;;;5052919;28;20239;-78
2022/03/11 05:15:38;;;;;;;6.30;1.40;;;23.90;55.00;;;;;;5052925;28;20191;-80
2022/03/11 05:18:05;;;;;;;9.37;1.67;;;24.00;54.90;;;;;;5053687;28;20198;-76
2022/03/11 05:20:34;;;;;;;10.93;2.00;;;24.00;55.60;;;;;;5048696;28;20180;-81
2022/03/11 05:23:01;;;;;;;4.53;1.10;;;23.80;55.50;;;;;;5054317;28;20168;-81
2022/03/11 05:25:29;;;;;;;5.83;1.17;;;23.80;55.30;;;;;;5038673;28;20185;-80
2022/03/11 05:27:56;;;;;;;6.07;1.27;;;23.90;55.20;;;;;;5049147;28;20172;-78
2022/03/11 05:30:24;;;;;;;5.17;1.03;;;24.80;52.90;;;;;;5053805;28;20635;-80
2022/03/11 05:32:51;;;;;;;5.90;1.30;;;26.30;48.70;;;;;;5041470;28;20264;-82
2022/03/11 05:35:19;;;;;;;9.27;1.50;;;26.80;47.70;;;;;;5053916;28;20176;-79
2022/03/11 05:37:46;;;;;;;4.00;1.23;;;28.20;44.70;;;;;;5054015;28;20176;-80
2022/03/11 05:40:14;;;;;;;10.57;1.50;;;28.90;42.60;;;;;;5053874;28;20172;-80
2022/03/11 05:42:42;;;;;;;4.20;1.30;;;27.60;44.70;;;;;;5053580;28;20176;-79
2022/03/11 05:45:10;;;;;;;5.30;1.00;;;26.10;48.10;;;;;;5053511;28;20168;-82
2022/03/11 05:47:38;;;;;;;5.83;1.93;;;25.30;49.90;;;;;;5034271;28;20181;-78
2022/03/11 05:50:06;;;;;;;6.10;2.10;;;24.60;51.50;;;;;;5036605;28;20200;-76
2022/03/11 05:52:40;;;;;;;8.10;1.80;;;24.30;52.70;;;;;;5052848;28;20563;-79
2022/03/11 05:55:08;;;;;;;6.10;1.40;;;24.10;54.30;;;;;;5051699;28;20563;-79
2022/03/11 05:57:36;;;;;;;4.40;1.27;;;25.50;51.60;;;;;;5051448;28;20172;-78
2022/03/11 06:00:08;;;;;;;8.03;1.50;;;27.30;46.80;;;;;;5051782;28;20183;-79
2022/03/11 06:02:39;;;;;;;8.23;2.83;;;28.30;44.60;;;;;;5052975;28;20245;-80
2022/03/11 06:05:09;;;;;;;6.07;2.60;;;29.40;42.60;;;;;;5053038;28;20202;-80
2022/03/11 06:07:37;;;;;;;7.75;1.30;;;29.30;43.10;;;;;;5053579;28;20242;-78
2022/03/11 06:10:05;;;;;;;4.40;1.05;;;28.60;44.30;;;;;;5051650;28;20267;-79
2022/03/11 06:12:32;;;;;;;2.83;0.90;;;29.20;43.40;;;;;;5051487;28;20212;-79
2022/03/11 06:15:00;;;;;;;6.00;1.20;;;28.30;45.10;;;;;;5037302;28;20263;-80
2022/03/11 06:17:27;;;;;;;8.60;1.48;;;27.70;46.00;;;;;;5044023;28;20211;-80
2022/03/11 06:19:55;;;;;;;5.47;1.00;;;26.90;48.10;;;;;;5047375;28;20182;-77
2022/03/11 06:22:22;;;;;;;4.00;1.20;;;26.50;49.40;;;;;;5050499;28;20179;-80
2022/03/11 06:24:49;;;;;;;8.05;0.95;;;25.90;49.90;;;;;;5049491;28;20179;-78
2022/03/11 06:27:17;;;;;;;8.50;1.50;;;27.20;47.10;;;;;;5052473;28;20249;-80
2022/03/11 06:29:44;;;;;;;7.40;1.20;;;28.20;44.60;;;;;;5048045;28;20252;-80
2022/03/11 06:32:11;;;;;;;3.00;0.97;;;28.00;44.90;;;;;;5036613;28;20203;-77
2022/03/11 06:34:39;;;;;;;8.70;1.23;;;28.30;44.50;;;;;;5048537;28;20191;-77
2022/03/11 06:37:06;;;;;;;6.43;1.00;;;28.60;43.50;;;;;;5065606;28;20175;-79
2022/03/11 06:39:34;;;;;;;5.50;1.40;;;28.10;44.20;;;;;;5063244;28;20184;-77
2022/03/11 06:42:02;;;;;;;3.90;1.30;;;27.60;45.30;;;;;;5052465;28;20176;-81
2022/03/11 06:44:29;;;;;;;5.67;1.33;;;27.80;44.70;;;;;;5048346;28;20191;-79
2022/03/11 06:46:56;;;;;;;8.48;1.20;;;27.70;44.80;;;;;;5049254;28;20179;-79
2022/03/11 06:49:24;;;;;;;6.55;1.30;;;26.80;46.50;;;;;;5051912;28;20176;-78
2022/03/11 06:51:51;;;;;;;9.00;1.60;;;26.20;47.90;;;;;;5051803;28;20188;-79
2022/03/11 06:54:19;;;;;;;4.80;1.00;;;26.60;48.10;;;;;;5053291;28;20567;-81
2022/03/11 06:56:46;;;;;;;5.23;1.10;;;27.00;47.40;;;;;;5042466;28;20172;-80
2022/03/11 06:59:14;;;;;;;4.80;1.13;;;27.90;44.90;;;;;;5051458;28;20253;-78
2022/03/11 07:01:44;;;;;;;4.63;0.90;;;27.80;45.60;;;;;;5052549;28;20171;-77
2022/03/11 07:04:11;;;;;;;7.63;1.10;;;27.10;47.00;;;;;;5039869;28;20226;-79
2022/03/11 07:06:38;;;;;;;4.93;1.20;;;25.60;51.50;;;;;;5032178;28;20227;-78
2022/03/11 07:09:06;;;;;;;6.17;1.13;;;24.80;54.00;;;;;;5034724;28;20192;-79
2022/03/11 07:11:33;;;;;;;5.10;1.10;;;24.50;54.50;;;;;;5051937;28;20258;-78
2022/03/11 07:14:01;;;;;;;6.87;1.10;;;24.00;56.20;;;;;;5052028;28;20218;-78
2022/03/11 07:16:29;;;;;;;4.63;1.13;;;23.70;57.00;;;;;;5052400;28;20172;-79
2022/03/11 07:18:56;;;;;;;5.27;1.20;;;23.50;57.90;;;;;;5051663;28;20183;-81
2022/03/11 07:21:23;;;;;;;10.67;1.60;;;23.30;58.20;;;;;;5052277;28;20289;-77
2022/03/11 07:23:54;;;;;;;3.93;1.30;;;22.90;59.00;;;;;;5049259;28;20179;-78
2022/03/11 07:26:22;;;;;;;6.43;1.60;;;22.80;59.30;;;;;;5050464;28;20187;-79
2022/03/11 07:28:49;;;;;;;5.00;1.10;;;22.70;59.10;;;;;;5047346;28;20203;-78
2022/03/11 07:31:17;;;;;;;6.47;1.10;;;22.70;59.20;;;;;;5052506;28;20172;-79
2022/03/11 07:33:44;;;;;;;5.20;1.40;;;22.80;58.80;;;;;;5051382;28;20254;-79
2022/03/11 07:36:14;;;;;;;7.57;1.67;;;22.70;59.20;;;;;;5052141;28;20643;-78
2022/03/11 07:38:42;;;;;;;14.53;7.10;;;22.60;59.70;;;;;;5056360;28;20199;-78
2022/03/11 07:41:11;;;;;;;5.20;1.27;;;22.70;59.50;;;;;;5055878;28;20176;-79
2022/03/11 07:43:42;;;;;;;7.23;1.47;;;22.90;58.30;;;;;;5056271;28;20168;-77
2022/03/11 07:46:10;;;;;;;5.97;1.20;;;22.50;58.80;;;;;;5056570;28;20531;-79
2022/03/11 07:48:38;;;;;;;5.33;1.70;;;22.30;59.30;;;;;;5056196;28;20205;-78
2022/03/11 07:51:06;;;;;;;7.27;1.50;;;22.30;59.70;;;;;;5040720;28;20181;-79
2022/03/11 07:53:33;;;;;;;11.83;1.67;;;22.20;60.30;;;;;;5056795;28;20220;-78
2022/03/11 07:56:01;;;;;;;7.63;1.70;;;22.30;60.40;;;;;;5047017;28;20311;-79
2022/03/11 07:58:28;;;;;;;5.47;1.87;;;22.30;60.80;;;;;;5054274;28;20183;-79
2022/03/11 08:00:56;;;;;;;8.97;2.13;;;22.10;61.10;;;;;;5055635;28;20237;-79
2022/03/11 08:03:23;;;;;;;6.50;1.43;;;22.00;61.40;;;;;;5055235;28;20180;-83
2022/03/11 08:05:50;;;;;;;5.83;1.20;;;21.90;61.40;;;;;;5055342;28;20212;-81
2022/03/11 08:08:18;;;;;;;7.90;1.40;;;21.80;61.80;;;;;;5050904;28;20203;-79
2022/03/11 08:10:45;;;;;;;6.00;1.40;;;21.80;61.50;;;;;;5052611;28;20172;-79
2022/03/11 08:13:13;;;;;;;3.97;1.50;;;21.80;61.50;;;;;;5054585;28;20707;-78
2022/03/11 08:15:40;;;;;;;7.20;1.40;;;21.70;61.80;;;;;;5052280;28;20176;-82
2022/03/11 08:18:10;;;;;;;7.97;1.63;;;21.80;61.60;;;;;;5040945;28;20194;-80
2022/03/11 08:20:38;;;;;;;5.27;1.50;;;21.70;61.40;;;;;;5055487;28;20607;-78
2022/03/11 08:23:06;;;;;;;9.30;1.77;;;21.70;61.40;;;;;;5047597;28;20195;-78
2022/03/11 08:25:34;;;;;;;4.37;1.50;;;21.70;61.40;;;;;;5040694;28;20189;-79
2022/03/11 08:28:04;;;;;;;6.03;1.30;;;21.70;61.90;;;;;;5053917;28;20180;-79
2022/03/11 08:30:32;;;;;;;9.73;1.93;;;21.70;61.70;;;;;;5045836;28;20200;-80
2022/03/11 08:32:59;;;;;;;7.10;1.30;;;21.80;61.50;;;;;;5050337;28;20215;-80
2022/03/11 08:35:27;;;;;;;4.60;1.37;;;21.60;61.50;;;;;;5054352;28;20267;-79
2022/03/11 08:37:55;;;;;;;3.37;1.77;;;21.60;61.90;;;;;;5055170;28;20549;-78
2022/03/11 08:40:24;;;;;;;6.90;1.47;;;21.60;61.40;;;;;;5054821;28;20168;-80
2022/03/11 08:42:52;;;;;;;6.30;1.73;;;21.60;62.00;;;;;;5054929;28;20584;-80
2022/03/11 08:45:21;;;;;;;7.00;2.07;;;21.60;61.80;;;;;;5055185;28;20267;-78
2022/03/11 08:47:50;;;;;;;11.60;3.40;;;21.70;61.80;;;;;;5052372;28;20212;-79
2022/03/11 08:50:18;;;;;;;7.80;1.93;;;21.70;62.40;;;;;;5053898;28;20172;-80
2022/03/11 08:52:46;;;;;;;7.73;2.70;;;21.70;63.30;;;;;;5054861;28;20207;-79
2022/03/11 08:55:15;;;;;;;9.90;2.40;;;21.70;63.50;;;;;;5047607;28;20180;-78
2022/03/11 08:57:49;;;;;;;5.90;1.77;;;21.80;63.80;;;;;;5041723;28;20482;-82
2022/03/11 09:00:18;;;;;;;7.93;1.80;;;21.70;63.90;;;;;;5044142;28;20195;-82
2022/03/11 09:02:49;;;;;;;8.57;3.63;;;21.70;64.20;;;;;;5052019;28;20191;-80
2022/03/11 09:05:18;;;;;;;8.93;2.80;;;21.70;64.60;;;;;;5052359;28;20203;-79
2022/03/11 09:07:48;;;;;;;13.13;4.27;;;21.70;64.80;;;;;;5048868;28;20200;-79
2022/03/11 09:10:18;;;;;;;9.40;1.87;;;21.70;64.80;;;;;;5034196;28;20169;-78
2022/03/11 09:12:46;;;;;;;10.33;2.03;;;21.70;65.10;;;;;;5053084;28;20214;-80
2022/03/11 09:15:17;;;;;;;9.80;3.20;;;21.70;64.90;;;;;;5052606;28;20172;-81
2022/03/11 09:17:45;;;;;;;4.90;2.83;;;21.60;65.40;;;;;;5054181;28;20588;-80
2022/03/11 09:20:14;;;;;;;7.20;2.13;;;21.60;64.60;;;;;;5054444;28;20646;-80
2022/03/11 09:22:41;;;;;;;5.97;2.10;;;21.60;64.90;;;;;;5054200;28;20222;-80
2022/03/11 09:25:11;;;;;;;6.83;1.67;;;21.50;65.30;;;;;;5053414;28;20538;-80
2022/03/11 09:27:39;;;;;;;9.97;2.00;;;21.50;65.40;;;;;;5046599;28;20211;-80
2022/03/11 09:30:08;;;;;;;10.43;2.37;;;21.50;65.30;;;;;;5052044;28;20218;-80
2022/03/11 09:32:37;;;;;;;7.97;1.80;;;21.50;65.60;;;;;;5050304;28;20207;-80
2022/03/11 09:35:06;;;;;;;10.47;1.83;;;21.50;65.60;;;;;;5053920;28;20716;-80
2022/03/11 09:37:34;;;;;;;6.13;1.80;;;21.40;65.50;;;;;;5047699;28;20191;-81
2022/03/11 09:40:01;;;;;;;5.60;1.53;;;21.50;65.30;;;;;;5042973;28;20172;-80
2022/03/11 09:42:29;;;;;;;5.60;2.03;;;21.50;65.70;;;;;;5050699;28;20176;-80
2022/03/11 09:44:57;;;;;;;5.63;1.43;;;21.50;65.80;;;;;;5044944;28;20760;-80
2022/03/11 09:47:25;;;;;;;5.97;1.67;;;21.50;65.90;;;;;;5054058;28;20168;-80
2022/03/11 09:49:53;;;;;;;4.07;1.70;;;21.40;65.80;;;;;;5052157;28;20175;-80
2022/03/11 09:52:20;;;;;;;6.97;2.10;;;21.50;66.20;;;;;;5035358;28;20204;-80
2022/03/11 09:54:48;;;;;;;6.90;2.03;;;21.50;66.40;;;;;;5053328;28;20302;-81
2022/03/11 09:57:22;;;;;;;5.50;1.53;;;21.50;66.50;;;;;;5045177;28;20173;-80
2022/03/11 09:59:50;;;;;;;7.60;1.60;;;21.50;66.40;;;;;;5048126;28;20229;-80
2022/03/11 10:02:19;;;;;;;7.87;2.10;;;21.50;66.80;;;;;;5035666;28;20586;-82
2022/03/11 10:04:54;;;;;;;7.67;4.93;;;21.30;67.00;;;;;;5040121;28;20642;-80
2022/03/11 10:07:28;;;;;;;7.53;2.10;;;21.30;67.10;;;;;;5051609;28;20245;-79
2022/03/11 10:10:10;;;;;;;5.90;2.07;;;21.40;66.80;;;;;;5053957;28;20164;-79
2022/03/11 10:12:43;;;;;;;6.90;2.37;;;21.40;66.50;;;;;;5051765;28;20207;-80
2022/03/11 10:15:11;;;;;;;8.90;2.10;;;21.40;66.60;;;;;;5053447;28;20195;-79
2022/03/11 10:17:46;;;;;;;6.83;2.07;;;21.40;66.60;;;;;;5053270;28;20590;-79
2022/03/11 10:20:16;;;;;;;5.43;2.00;;;21.40;66.30;;;;;;5051275;28;20717;-79
2022/03/11 10:22:47;;;;;;;10.23;1.80;;;21.30;65.60;;;;;;5053123;28;20213;-78
2022/03/11 10:25:17;;;;;;;6.70;1.70;;;21.40;65.40;;;;;;5047443;28;20317;-78
2022/03/11 10:28:06;;;;;;;7.77;1.60;;;21.40;65.50;;;;;;5049806;28;20176;-79
2022/03/11 10:30:39;;;;;;;8.53;1.80;;;21.30;65.10;;;;;;5039158;28;20179;-82
2022/03/11 10:33:12;;;;;;;8.30;1.90;;;21.40;64.30;;;;;;5052576;28;20219;-80
2022/03/11 10:35:47;;;;;;;9.30;1.93;;;21.30;64.10;;;;;;5053401;28;20176;-80
2022/03/11 10:38:27;;;;;;;9.27;1.67;;;21.30;64.50;;;;;;5051080;28;20187;-80
2022/03/11 10:41:05;;;;;;;5.23;2.10;;;21.30;64.70;;;;;;5045366;28;20218;-80
2022/03/11 10:43:33;;;;;;;4.67;1.53;;;21.30;65.00;;;;;;5052804;28;20206;-80
2022/03/11 10:46:06;;;;;;;7.57;4.73;;;21.30;64.90;;;;;;5053115;28;20176;-80
2022/03/11 10:48:47;;;;;;;7.33;2.87;;;21.30;65.10;;;;;;5052614;28;20186;-82
2022/03/11 10:51:26;;;;;;;8.80;2.30;;;21.30;64.70;;;;;;5042337;28;20198;-80
2022/03/11 10:53:58;;;;;;;11.50;2.43;;;21.30;65.20;;;;;;5051082;28;20219;-81
2022/03/11 10:56:29;;;;;;;5.97;1.90;;;21.30;65.50;;;;;;5052440;28;20168;-80
2022/03/11 10:58:57;;;;;;;6.23;1.73;;;21.30;64.90;;;;;;5044534;28;20176;-79
2022/03/11 11:02:00;;;;;;;5.47;1.60;;;21.20;64.50;;;;;;5037151;28;20172;-79
2022/03/11 11:04:28;;;;;;;8.47;1.63;;;21.20;64.60;;;;;;4985329;28;20182;-80
2022/03/11 11:06:56;;;;;;;6.90;1.33;;;21.20;64.60;;;;;;5027012;28;20230;-80
2022/03/11 11:09:24;;;;;;;7.30;1.57;;;21.20;64.80;;;;;;5040975;28;20639;-80
2022/03/11 11:11:52;;;;;;;7.83;2.03;;;21.10;64.60;;;;;;5051684;28;20164;-80
2022/03/11 11:14:20;;;;;;;4.60;1.43;;;21.00;64.90;;;;;;5048876;28;20188;-79
2022/03/11 11:16:50;;;;;;;10.97;2.20;;;21.10;65.30;;;;;;5052072;28;20175;-79
2022/03/11 11:19:20;;;;;;;6.77;1.50;;;20.90;66.00;;;;;;5051854;28;20228;-79
2022/03/11 11:21:51;;;;;;;7.20;1.77;;;20.90;66.30;;;;;;5050780;28;20515;-79
2022/03/11 11:24:22;;;;;;;7.97;1.87;;;20.80;65.90;;;;;;5052181;28;20207;-79
2022/03/11 11:26:53;;;;;;;7.23;1.87;;;20.80;65.50;;;;;;5051951;28;20164;-80
2022/03/11 11:29:35;;;;;;;6.77;1.50;;;20.80;65.50;;;;;;5051739;28;20187;-79
2022/03/11 11:32:06;;;;;;;5.50;1.40;;;20.80;65.90;;;;;;5052128;28;20182;-80
2022/03/11 11:34:37;;;;;;;8.03;1.63;;;20.70;66.70;;;;;;5050507;28;20199;-79
2022/03/11 11:37:09;;;;;;;5.57;1.67;;;20.60;66.80;;;;;;5052377;28;20230;-79
2022/03/11 11:39:42;;;;;;;8.13;2.40;;;20.50;66.60;;;;;;5052001;28;20176;-79
2022/03/11 11:42:12;;;;;;;7.47;1.67;;;20.50;66.70;;;;;;5051371;28;20191;-79
2022/03/11 11:44:42;;;;;;;4.77;1.60;;;20.50;66.30;;;;;;5051756;28;20263;-79
2022/03/11 11:47:15;;;;;;;6.43;1.90;;;20.60;66.20;;;;;;5052291;28;20183;-79
2022/03/11 11:49:51;;;;;;;6.40;1.50;;;20.50;66.80;;;;;;5051769;28;20180;-79
2022/03/11 11:52:37;;;;;;;8.80;4.70;;;20.60;66.70;;;;;;5050749;28;20257;-79
2022/03/11 11:55:19;;;;;;;11.27;7.07;;;20.50;67.10;;;;;;5032544;28;20575;-79
2022/03/11 11:57:48;;;;;;;8.87;4.73;;;20.50;67.20;;;;;;5032246;28;20238;-79
2022/03/11 12:00:32;;;;;;;9.80;4.57;;;20.50;66.80;;;;;;5031835;28;20288;-79
2022/03/11 12:02:59;;;;;;;8.50;3.53;;;20.50;67.20;;;;;;5042930;28;20202;-80
2022/03/11 12:05:48;;;;;;;6.87;2.03;;;20.40;67.40;;;;;;5051856;28;20176;-80
2022/03/11 12:08:40;;;;;;;4.93;1.90;;;20.40;67.30;;;;;;5052000;28;20172;-80
2022/03/11 12:11:07;;;;;;;8.87;1.57;;;20.40;67.30;;;;;;5051541;28;20182;-80
2022/03/11 12:13:35;;;;;;;6.47;1.73;;;20.50;67.50;;;;;;5051902;28;20210;-79
2022/03/11 12:16:15;;;;;;;6.87;1.93;;;20.40;67.50;;;;;;5051886;28;20198;-79
2022/03/11 12:18:47;;;;;;;6.43;1.70;;;20.50;67.80;;;;;;5050306;28;20568;-79
2022/03/11 12:21:41;;;;;;;5.43;1.60;;;20.50;68.40;;;;;;5051863;28;20175;-80
2022/03/11 12:24:33;;;;;;;3.80;1.40;;;20.50;69.30;;;;;;5050649;28;20184;-80
2022/03/11 12:27:01;;;;;;;4.87;1.50;;;20.40;69.60;;;;;;5039621;28;20192;-80
2022/03/11 12:29:35;;;;;;;5.20;1.37;;;20.30;69.60;;;;;;5055000;28;20175;-79
2022/03/11 12:32:08;;;;;;;5.80;1.27;;;20.30;69.70;;;;;;5053988;28;20191;-79
2022/03/11 12:34:36;;;;;;;5.90;1.37;;;20.30;69.70;;;;;;5054067;28;20209;-82
2022/03/11 12:37:06;;;;;;;6.47;1.27;;;20.20;70.00;;;;;;5055512;28;20183;-81
2022/03/11 12:39:34;;;;;;;7.57;1.67;;;20.20;70.80;;;;;;5055171;28;20176;-80
2022/03/11 12:42:02;;;;;;;8.17;1.50;;;20.20;71.50;;;;;;5055132;28;20592;-81
2022/03/11 12:44:29;;;;;;;4.77;1.53;;;20.20;70.80;;;;;;5053253;28;20642;-80
2022/03/11 12:46:56;;;;;;;8.07;1.73;;;20.20;71.40;;;;;;5053220;28;20184;-80
2022/03/11 12:49:27;;;;;;;7.30;1.60;;;20.20;71.60;;;;;;5047097;28;20180;-80
2022/03/11 12:52:21;;;;;;;6.57;1.73;;;20.30;71.40;;;;;;5035829;28;20240;-80
2022/03/11 12:54:48;;;;;;;7.57;2.00;;;20.30;71.30;;;;;;5038350;28;20191;-79